sensor_id;sensor_type;location;lat;lon;timestamp;P1;durP1;ratioP1;P2;durP2;ratioP2
22929;SDS011;11630;42.660;23.292;2022-08-06T00:00:33;7.00;;;5.13;;
22929;SDS011;11630;42.660;23.292;2022-08-06T00:03:03;6.00;;;5.10;;
22929;SDS011;11630;42.660;23.292;2022-08-06T00:05:34;9.27;;;5.30;;
22929;SDS011;11630;42.660;23.292;2022-08-06T00:08:04;10.93;;;5.43;;
22929;SDS011;11630;42.660;23.292;2022-08-06T00:10:35;6.97;;;5.57;;
22929;SDS011;11630;42.660;23.292;2022-08-06T00:13:06;8.80;;;5.73;;
22929;SDS011;11630;42.660;23.292;2022-08-06T00:15:37;12.43;;;5.10;;
22929;SDS011;11630;42.660;23.292;2022-08-06T00:18:10;8.33;;;4.87;;
22929;SDS011;11630;42.660;23.292;2022-08-06T00:20:40;6.43;;;5.37;;
22929;SDS011;11630;42.660;23.292;2022-08-06T00:23:11;9.87;;;4.63;;
22929;SDS011;11630;42.660;23.292;2022-08-06T00:25:44;5.77;;;5.27;;
22929;SDS011;11630;42.660;23.292;2022-08-06T00:28:15;7.00;;;5.40;;
22929;SDS011;11630;42.660;23.292;2022-08-06T00:30:47;8.30;;;5.50;;
22929;SDS011;11630;42.660;23.292;2022-08-06T00:33:17;9.93;;;5.23;;
22929;SDS011;11630;42.660;23.292;2022-08-06T00:35:47;6.80;;;5.67;;
22929;SDS011;11630;42.660;23.292;2022-08-06T00:38:17;7.47;;;5.33;;
22929;SDS011;11630;42.660;23.292;2022-08-06T00:40:49;4.83;;;4.43;;
22929;SDS011;11630;42.660;23.292;2022-08-06T00:43:22;6.47;;;5.77;;
22929;SDS011;11630;42.660;23.292;2022-08-06T00:45:52;5.70;;;5.20;;
22929;SDS011;11630;42.660;23.292;2022-08-06T00:48:22;7.43;;;5.57;;
22929;SDS011;11630;42.660;23.292;2022-08-06T00:50:53;6.23;;;5.40;;
22929;SDS011;11630;42.660;23.292;2022-08-06T00:53:23;8.00;;;6.30;;
22929;SDS011;11630;42.660;23.292;2022-08-06T00:55:54;18.57;;;5.63;;
22929;SDS011;11630;42.660;23.292;2022-08-06T00:58:25;7.00;;;5.43;;
22929;SDS011;11630;42.660;23.292;2022-08-06T01:00:56;6.40;;;5.67;;
22929;SDS011;11630;42.660;23.292;2022-08-06T01:03:28;10.00;;;5.83;;
22929;SDS011;11630;42.660;23.292;2022-08-06T01:05:58;5.73;;;5.20;;
22929;SDS011;11630;42.660;23.292;2022-08-06T01:08:29;11.07;;;5.50;;
22929;SDS011;11630;42.660;23.292;2022-08-06T01:11:00;6.13;;;5.60;;
22929;SDS011;11630;42.660;23.292;2022-08-06T01:13:31;5.67;;;5.17;;
22929;SDS011;11630;42.660;23.292;2022-08-06T01:26:46;7.50;;;5.93;;
22929;SDS011;11630;42.660;23.292;2022-08-06T01:29:22;6.07;;;5.30;;
22929;SDS011;11630;42.660;23.292;2022-08-06T01:31:57;6.50;;;5.33;;
22929;SDS011;11630;42.660;23.292;2022-08-06T01:34:53;5.20;;;4.73;;
22929;SDS011;11630;42.660;23.292;2022-08-06T01:37:29;10.60;;;6.70;;
22929;SDS011;11630;42.660;23.292;2022-08-06T01:40:16;7.17;;;4.97;;
22929;SDS011;11630;42.660;23.292;2022-08-06T01:42:47;5.37;;;4.87;;
22929;SDS011;11630;42.660;23.292;2022-08-06T01:45:19;7.57;;;5.13;;
22929;SDS011;11630;42.660;23.292;2022-08-06T01:47:52;9.97;;;5.30;;
22929;SDS011;11630;42.660;23.292;2022-08-06T01:50:26;5.87;;;4.97;;
22929;SDS011;11630;42.660;23.292;2022-08-06T01:52:58;5.23;;;4.73;;
22929;SDS011;11630;42.660;23.292;2022-08-06T01:55:31;6.97;;;5.37;;
22929;SDS011;11630;42.660;23.292;2022-08-06T01:58:02;6.70;;;4.63;;
22929;SDS011;11630;42.660;23.292;2022-08-06T02:00:41;7.77;;;5.27;;
22929;SDS011;11630;42.660;23.292;2022-08-06T02:03:14;5.70;;;5.10;;
22929;SDS011;11630;42.660;23.292;2022-08-06T02:05:45;6.97;;;5.47;;
22929;SDS011;11630;42.660;23.292;2022-08-06T02:08:16;8.37;;;5.97;;
22929;SDS011;11630;42.660;23.292;2022-08-06T02:10:50;7.30;;;5.30;;
22929;SDS011;11630;42.660;23.292;2022-08-06T02:13:22;6.50;;;4.90;;
22929;SDS011;11630;42.660;23.292;2022-08-06T02:15:54;5.67;;;5.03;;
22929;SDS011;11630;42.660;23.292;2022-08-06T02:18:27;7.33;;;5.20;;
22929;SDS011;11630;42.660;23.292;2022-08-06T02:20:58;6.67;;;4.93;;
22929;SDS011;11630;42.660;23.292;2022-08-06T02:23:30;5.97;;;5.03;;
22929;SDS011;11630;42.660;23.292;2022-08-06T02:26:07;6.43;;;5.60;;
22929;SDS011;11630;42.660;23.292;2022-08-06T02:28:39;6.17;;;5.17;;
22929;SDS011;11630;42.660;23.292;2022-08-06T02:31:26;10.63;;;5.27;;
22929;SDS011;11630;42.660;23.292;2022-08-06T02:33:50;6.83;;;5.30;;
22929;SDS011;11630;42.660;23.292;2022-08-06T02:36:34;7.57;;;5.23;;
22929;SDS011;11630;42.660;23.292;2022-08-06T02:39:25;6.30;;;5.00;;
22929;SDS011;11630;42.660;23.292;2022-08-06T02:42:01;7.30;;;5.33;;
22929;SDS011;11630;42.660;23.292;2022-08-06T02:44:48;5.63;;;5.10;;
22929;SDS011;11630;42.660;23.292;2022-08-06T02:50:03;8.27;;;5.03;;
22929;SDS011;11630;42.660;23.292;2022-08-06T02:52:48;5.87;;;5.30;;
22929;SDS011;11630;42.660;23.292;2022-08-06T02:55:25;10.90;;;5.53;;
22929;SDS011;11630;42.660;23.292;2022-08-06T02:57:56;9.17;;;6.13;;
22929;SDS011;11630;42.660;23.292;2022-08-06T03:00:27;6.87;;;5.43;;
22929;SDS011;11630;42.660;23.292;2022-08-06T03:03:00;7.87;;;5.03;;
22929;SDS011;11630;42.660;23.292;2022-08-06T03:05:35;16.10;;;5.20;;
22929;SDS011;11630;42.660;23.292;2022-08-06T03:08:09;24.40;;;5.93;;
22929;SDS011;11630;42.660;23.292;2022-08-06T03:10:41;6.63;;;5.27;;
22929;SDS011;11630;42.660;23.292;2022-08-06T03:13:14;7.57;;;5.87;;
22929;SDS011;11630;42.660;23.292;2022-08-06T03:15:46;5.47;;;4.97;;
22929;SDS011;11630;42.660;23.292;2022-08-06T03:18:20;9.20;;;5.90;;
22929;SDS011;11630;42.660;23.292;2022-08-06T03:20:55;5.90;;;5.37;;
22929;SDS011;11630;42.660;23.292;2022-08-06T03:23:28;9.60;;;5.60;;
22929;SDS011;11630;42.660;23.292;2022-08-06T03:26:03;13.27;;;5.57;;
22929;SDS011;11630;42.660;23.292;2022-08-06T03:28:42;11.77;;;5.67;;
22929;SDS011;11630;42.660;23.292;2022-08-06T03:31:19;9.90;;;5.67;;
22929;SDS011;11630;42.660;23.292;2022-08-06T03:33:51;7.67;;;5.47;;
22929;SDS011;11630;42.660;23.292;2022-08-06T03:36:24;6.63;;;5.73;;
22929;SDS011;11630;42.660;23.292;2022-08-06T03:38:59;6.47;;;5.30;;
22929;SDS011;11630;42.660;23.292;2022-08-06T03:41:32;13.20;;;5.67;;
22929;SDS011;11630;42.660;23.292;2022-08-06T03:44:03;11.27;;;5.60;;
22929;SDS011;11630;42.660;23.292;2022-08-06T03:46:44;10.87;;;5.60;;
22929;SDS011;11630;42.660;23.292;2022-08-06T03:49:35;9.47;;;5.93;;
22929;SDS011;11630;42.660;23.292;2022-08-06T03:52:05;7.80;;;5.30;;
22929;SDS011;11630;42.660;23.292;2022-08-06T03:54:42;12.83;;;5.27;;
22929;SDS011;11630;42.660;23.292;2022-08-06T03:57:32;14.10;;;5.77;;
22929;SDS011;11630;42.660;23.292;2022-08-06T03:59:50;9.00;;;5.50;;
22929;SDS011;11630;42.660;23.292;2022-08-06T04:02:27;8.13;;;5.97;;
22929;SDS011;11630;42.660;23.292;2022-08-06T04:05:27;6.57;;;5.97;;
22929;SDS011;11630;42.660;23.292;2022-08-06T04:07:46;7.73;;;6.20;;
22929;SDS011;11630;42.660;23.292;2022-08-06T04:12:55;6.80;;;6.10;;
22929;SDS011;11630;42.660;23.292;2022-08-06T04:15:31;13.13;;;6.07;;
22929;SDS011;11630;42.660;23.292;2022-08-06T04:18:07;9.63;;;6.00;;
22929;SDS011;11630;42.660;23.292;2022-08-06T04:20:38;9.40;;;5.90;;
22929;SDS011;11630;42.660;23.292;2022-08-06T04:23:12;10.07;;;5.67;;
22929;SDS011;11630;42.660;23.292;2022-08-06T04:25:44;12.00;;;6.13;;
22929;SDS011;11630;42.660;23.292;2022-08-06T04:28:17;21.80;;;6.60;;
22929;SDS011;11630;42.660;23.292;2022-08-06T04:30:51;24.17;;;6.80;;
22929;SDS011;11630;42.660;23.292;2022-08-06T04:33:24;20.60;;;6.50;;
22929;SDS011;11630;42.660;23.292;2022-08-06T04:35:55;11.90;;;5.80;;
22929;SDS011;11630;42.660;23.292;2022-08-06T04:38:26;8.73;;;5.87;;
22929;SDS011;11630;42.660;23.292;2022-08-06T04:40:58;6.37;;;5.77;;
22929;SDS011;11630;42.660;23.292;2022-08-06T04:43:30;7.83;;;6.67;;
22929;SDS011;11630;42.660;23.292;2022-08-06T04:46:01;10.80;;;6.80;;
22929;SDS011;11630;42.660;23.292;2022-08-06T04:48:33;10.53;;;7.10;;
22929;SDS011;11630;42.660;23.292;2022-08-06T04:51:04;8.43;;;7.27;;
22929;SDS011;11630;42.660;23.292;2022-08-06T04:53:38;10.57;;;6.80;;
22929;SDS011;11630;42.660;23.292;2022-08-06T04:56:09;11.97;;;7.13;;
22929;SDS011;11630;42.660;23.292;2022-08-06T04:58:39;11.60;;;7.57;;
22929;SDS011;11630;42.660;23.292;2022-08-06T05:01:11;12.77;;;7.10;;
22929;SDS011;11630;42.660;23.292;2022-08-06T05:03:43;11.27;;;7.40;;
22929;SDS011;11630;42.660;23.292;2022-08-06T05:09:00;12.87;;;7.90;;
22929;SDS011;11630;42.660;23.292;2022-08-06T05:11:28;11.20;;;7.33;;
22929;SDS011;11630;42.660;23.292;2022-08-06T05:14:01;8.27;;;7.37;;
22929;SDS011;11630;42.660;23.292;2022-08-06T05:16:32;8.30;;;7.50;;
22929;SDS011;11630;42.660;23.292;2022-08-06T05:19:05;8.67;;;7.63;;
22929;SDS011;11630;42.660;23.292;2022-08-06T05:21:37;9.60;;;7.37;;
22929;SDS011;11630;42.660;23.292;2022-08-06T05:24:08;12.30;;;7.73;;
22929;SDS011;11630;42.660;23.292;2022-08-06T05:26:39;8.67;;;7.10;;
22929;SDS011;11630;42.660;23.292;2022-08-06T05:29:11;13.13;;;7.57;;
22929;SDS011;11630;42.660;23.292;2022-08-06T05:31:42;13.90;;;7.90;;
22929;SDS011;11630;42.660;23.292;2022-08-06T05:34:12;9.43;;;7.33;;
22929;SDS011;11630;42.660;23.292;2022-08-06T05:36:43;8.10;;;7.13;;
22929;SDS011;11630;42.660;23.292;2022-08-06T05:39:14;14.00;;;8.53;;
22929;SDS011;11630;42.660;23.292;2022-08-06T05:41:45;14.53;;;8.40;;
22929;SDS011;11630;42.660;23.292;2022-08-06T05:44:16;18.80;;;9.00;;
22929;SDS011;11630;42.660;23.292;2022-08-06T05:46:54;17.10;;;7.80;;
22929;SDS011;11630;42.660;23.292;2022-08-06T05:49:22;13.37;;;8.17;;
22929;SDS011;11630;42.660;23.292;2022-08-06T05:52:04;13.83;;;8.17;;
22929;SDS011;11630;42.660;23.292;2022-08-06T05:54:48;9.10;;;7.37;;
22929;SDS011;11630;42.660;23.292;2022-08-06T05:57:20;9.50;;;7.20;;
22929;SDS011;11630;42.660;23.292;2022-08-06T05:59:50;17.10;;;7.60;;
22929;SDS011;11630;42.660;23.292;2022-08-06T06:02:23;8.90;;;7.30;;
22929;SDS011;11630;42.660;23.292;2022-08-06T06:04:57;8.17;;;7.40;;
22929;SDS011;11630;42.660;23.292;2022-08-06T06:07:28;8.83;;;6.10;;
22929;SDS011;11630;42.660;23.292;2022-08-06T06:09:59;9.07;;;6.57;;
22929;SDS011;11630;42.660;23.292;2022-08-06T06:12:31;7.50;;;6.70;;
22929;SDS011;11630;42.660;23.292;2022-08-06T06:15:02;12.07;;;7.00;;
22929;SDS011;11630;42.660;23.292;2022-08-06T06:26:22;8.37;;;6.43;;
22929;SDS011;11630;42.660;23.292;2022-08-06T06:29:11;11.83;;;8.00;;
22929;SDS011;11630;42.660;23.292;2022-08-06T06:37:24;6.83;;;6.13;;
22929;SDS011;11630;42.660;23.292;2022-08-06T06:48:35;8.77;;;6.73;;
22929;SDS011;11630;42.660;23.292;2022-08-06T06:51:07;8.30;;;7.00;;
22929;SDS011;11630;42.660;23.292;2022-08-06T06:53:39;10.67;;;7.23;;
22929;SDS011;11630;42.660;23.292;2022-08-06T06:56:09;10.60;;;6.83;;
22929;SDS011;11630;42.660;23.292;2022-08-06T06:58:45;8.57;;;7.33;;
22929;SDS011;11630;42.660;23.292;2022-08-06T07:01:22;11.30;;;6.83;;
22929;SDS011;11630;42.660;23.292;2022-08-06T07:03:54;9.10;;;6.90;;
22929;SDS011;11630;42.660;23.292;2022-08-06T07:06:26;11.20;;;6.53;;
22929;SDS011;11630;42.660;23.292;2022-08-06T07:08:58;7.07;;;6.47;;
22929;SDS011;11630;42.660;23.292;2022-08-06T07:11:30;11.87;;;7.60;;
22929;SDS011;11630;42.660;23.292;2022-08-06T07:14:02;12.93;;;6.90;;
22929;SDS011;11630;42.660;23.292;2022-08-06T07:16:34;10.67;;;6.70;;
22929;SDS011;11630;42.660;23.292;2022-08-06T07:19:05;10.77;;;6.73;;
22929;SDS011;11630;42.660;23.292;2022-08-06T07:21:40;9.63;;;7.03;;
22929;SDS011;11630;42.660;23.292;2022-08-06T07:24:11;11.77;;;6.50;;
22929;SDS011;11630;42.660;23.292;2022-08-06T07:26:48;7.30;;;6.70;;
22929;SDS011;11630;42.660;23.292;2022-08-06T07:29:19;11.23;;;7.50;;
22929;SDS011;11630;42.660;23.292;2022-08-06T07:31:50;13.60;;;6.83;;
22929;SDS011;11630;42.660;23.292;2022-08-06T07:34:25;7.53;;;6.73;;
22929;SDS011;11630;42.660;23.292;2022-08-06T07:36:55;7.77;;;7.00;;
22929;SDS011;11630;42.660;23.292;2022-08-06T07:39:28;13.13;;;6.43;;
22929;SDS011;11630;42.660;23.292;2022-08-06T07:42:01;14.20;;;6.70;;
22929;SDS011;11630;42.660;23.292;2022-08-06T07:44:34;8.03;;;6.35;;
22929;SDS011;11630;42.660;23.292;2022-08-06T07:47:04;8.27;;;6.37;;
22929;SDS011;11630;42.660;23.292;2022-08-06T07:49:41;6.87;;;6.17;;
22929;SDS011;11630;42.660;23.292;2022-08-06T07:52:14;13.15;;;6.95;;
22929;SDS011;11630;42.660;23.292;2022-08-06T07:54:45;10.43;;;6.50;;
22929;SDS011;11630;42.660;23.292;2022-08-06T07:57:19;11.60;;;7.05;;
22929;SDS011;11630;42.660;23.292;2022-08-06T07:59:50;7.60;;;6.17;;
22929;SDS011;11630;42.660;23.292;2022-08-06T08:02:21;10.90;;;6.57;;
22929;SDS011;11630;42.660;23.292;2022-08-06T08:04:54;17.92;;;6.05;;
22929;SDS011;11630;42.660;23.292;2022-08-06T08:07:41;12.13;;;6.42;;
22929;SDS011;11630;42.660;23.292;2022-08-06T08:10:14;13.43;;;6.33;;
22929;SDS011;11630;42.660;23.292;2022-08-06T08:12:46;10.95;;;6.70;;
22929;SDS011;11630;42.660;23.292;2022-08-06T08:15:17;9.20;;;6.17;;
22929;SDS011;11630;42.660;23.292;2022-08-06T08:17:50;9.93;;;5.80;;
22929;SDS011;11630;42.660;23.292;2022-08-06T08:20:20;8.23;;;6.15;;
22929;SDS011;11630;42.660;23.292;2022-08-06T08:22:51;7.67;;;5.37;;
22929;SDS011;11630;42.660;23.292;2022-08-06T08:25:21;9.18;;;5.42;;
22929;SDS011;11630;42.660;23.292;2022-08-06T08:27:53;6.62;;;5.30;;
22929;SDS011;11630;42.660;23.292;2022-08-06T08:30:22;5.17;;;4.67;;
22929;SDS011;11630;42.660;23.292;2022-08-06T08:32:53;19.27;;;4.90;;
22929;SDS011;11630;42.660;23.292;2022-08-06T08:35:24;9.08;;;4.70;;
22929;SDS011;11630;42.660;23.292;2022-08-06T08:37:54;6.95;;;4.58;;
22929;SDS011;11630;42.660;23.292;2022-08-06T08:40:24;3.50;;;3.25;;
22929;SDS011;11630;42.660;23.292;2022-08-06T08:42:56;3.55;;;3.22;;
22929;SDS011;11630;42.660;23.292;2022-08-06T08:45:29;11.63;;;4.08;;
22929;SDS011;11630;42.660;23.292;2022-08-06T08:48:01;5.12;;;3.75;;
22929;SDS011;11630;42.660;23.292;2022-08-06T08:50:32;10.18;;;5.05;;
22929;SDS011;11630;42.660;23.292;2022-08-06T08:53:09;6.08;;;4.60;;
22929;SDS011;11630;42.660;23.292;2022-08-06T08:55:39;14.58;;;5.33;;
22929;SDS011;11630;42.660;23.292;2022-08-06T08:58:11;5.00;;;3.90;;
22929;SDS011;11630;42.660;23.292;2022-08-06T09:00:43;5.70;;;3.72;;
22929;SDS011;11630;42.660;23.292;2022-08-06T09:03:16;9.88;;;3.95;;
22929;SDS011;11630;42.660;23.292;2022-08-06T09:05:46;8.68;;;3.90;;
22929;SDS011;11630;42.660;23.292;2022-08-06T09:08:17;3.65;;;3.10;;
22929;SDS011;11630;42.660;23.292;2022-08-06T09:10:48;4.77;;;3.20;;
22929;SDS011;11630;42.660;23.292;2022-08-06T09:13:18;4.45;;;3.58;;
22929;SDS011;11630;42.660;23.292;2022-08-06T09:15:49;24.35;;;4.70;;
22929;SDS011;11630;42.660;23.292;2022-08-06T09:18:20;53.70;;;11.25;;
22929;SDS011;11630;42.660;23.292;2022-08-06T09:20:52;7.30;;;4.08;;
22929;SDS011;11630;42.660;23.292;2022-08-06T09:23:23;6.80;;;4.00;;
22929;SDS011;11630;42.660;23.292;2022-08-06T09:25:53;4.08;;;3.70;;
22929;SDS011;11630;42.660;23.292;2022-08-06T09:28:40;4.03;;;3.58;;
22929;SDS011;11630;42.660;23.292;2022-08-06T09:31:14;8.73;;;3.77;;
22929;SDS011;11630;42.660;23.292;2022-08-06T09:34:00;4.92;;;3.62;;
22929;SDS011;11630;42.660;23.292;2022-08-06T09:36:44;8.33;;;3.10;;
22929;SDS011;11630;42.660;23.292;2022-08-06T09:39:29;5.42;;;3.40;;
22929;SDS011;11630;42.660;23.292;2022-08-06T09:42:09;3.70;;;3.37;;
22929;SDS011;11630;42.660;23.292;2022-08-06T09:44:40;11.22;;;3.65;;
22929;SDS011;11630;42.660;23.292;2022-08-06T09:47:18;4.53;;;3.92;;
22929;SDS011;11630;42.660;23.292;2022-08-06T09:49:43;5.58;;;4.10;;
22929;SDS011;11630;42.660;23.292;2022-08-06T09:52:15;7.58;;;3.90;;
22929;SDS011;11630;42.660;23.292;2022-08-06T09:54:48;3.50;;;3.17;;
22929;SDS011;11630;42.660;23.292;2022-08-06T09:57:18;9.73;;;3.50;;
22929;SDS011;11630;42.660;23.292;2022-08-06T09:59:49;7.70;;;3.87;;
22929;SDS011;11630;42.660;23.292;2022-08-06T10:02:19;6.67;;;3.42;;
22929;SDS011;11630;42.660;23.292;2022-08-06T10:04:50;5.50;;;3.33;;
22929;SDS011;11630;42.660;23.292;2022-08-06T10:07:30;4.42;;;4.00;;
22929;SDS011;11630;42.660;23.292;2022-08-06T10:10:01;5.75;;;3.67;;
22929;SDS011;11630;42.660;23.292;2022-08-06T10:12:31;3.55;;;3.10;;
22929;SDS011;11630;42.660;23.292;2022-08-06T10:15:02;10.78;;;3.87;;
22929;SDS011;11630;42.660;23.292;2022-08-06T10:17:33;3.90;;;3.20;;
22929;SDS011;11630;42.660;23.292;2022-08-06T10:20:06;6.45;;;3.50;;
22929;SDS011;11630;42.660;23.292;2022-08-06T10:22:36;4.00;;;3.60;;
22929;SDS011;11630;42.660;23.292;2022-08-06T10:25:23;4.75;;;3.62;;
22929;SDS011;11630;42.660;23.292;2022-08-06T10:27:54;4.55;;;3.50;;
22929;SDS011;11630;42.660;23.292;2022-08-06T10:30:25;4.15;;;3.60;;
22929;SDS011;11630;42.660;23.292;2022-08-06T10:33:01;6.37;;;4.03;;
22929;SDS011;11630;42.660;23.292;2022-08-06T10:35:31;8.48;;;4.40;;
22929;SDS011;11630;42.660;23.292;2022-08-06T10:38:03;4.70;;;3.80;;
22929;SDS011;11630;42.660;23.292;2022-08-06T10:40:36;8.45;;;4.37;;
22929;SDS011;11630;42.660;23.292;2022-08-06T10:43:09;4.97;;;3.52;;
22929;SDS011;11630;42.660;23.292;2022-08-06T10:45:41;6.65;;;3.62;;
22929;SDS011;11630;42.660;23.292;2022-08-06T10:48:12;6.87;;;3.67;;
22929;SDS011;11630;42.660;23.292;2022-08-06T10:50:46;3.83;;;3.52;;
22929;SDS011;11630;42.660;23.292;2022-08-06T10:53:18;3.47;;;3.05;;
22929;SDS011;11630;42.660;23.292;2022-08-06T10:55:50;5.35;;;3.67;;
22929;SDS011;11630;42.660;23.292;2022-08-06T10:58:21;3.45;;;3.15;;
22929;SDS011;11630;42.660;23.292;2022-08-06T11:00:52;8.65;;;3.20;;
22929;SDS011;11630;42.660;23.292;2022-08-06T11:09:20;8.73;;;3.55;;
22929;SDS011;11630;42.660;23.292;2022-08-06T11:14:35;3.58;;;3.27;;
22929;SDS011;11630;42.660;23.292;2022-08-06T11:17:07;4.40;;;3.25;;
22929;SDS011;11630;42.660;23.292;2022-08-06T11:19:39;4.20;;;3.37;;
22929;SDS011;11630;42.660;23.292;2022-08-06T11:25:05;6.00;;;3.30;;
22929;SDS011;11630;42.660;23.292;2022-08-06T11:27:47;4.22;;;3.05;;
22929;SDS011;11630;42.660;23.292;2022-08-06T11:30:20;4.25;;;3.70;;
22929;SDS011;11630;42.660;23.292;2022-08-06T11:32:51;4.37;;;3.30;;
22929;SDS011;11630;42.660;23.292;2022-08-06T11:35:38;4.17;;;3.80;;
22929;SDS011;11630;42.660;23.292;2022-08-06T11:38:10;3.60;;;3.30;;
22929;SDS011;11630;42.660;23.292;2022-08-06T11:40:55;16.75;;;3.92;;
22929;SDS011;11630;42.660;23.292;2022-08-06T11:46:27;3.10;;;2.72;;
22929;SDS011;11630;42.660;23.292;2022-08-06T11:51:49;6.40;;;3.52;;
22929;SDS011;11630;42.660;23.292;2022-08-06T11:54:24;5.55;;;3.47;;
22929;SDS011;11630;42.660;23.292;2022-08-06T12:08:09;5.08;;;3.55;;
22929;SDS011;11630;42.660;23.292;2022-08-06T12:10:35;3.95;;;3.65;;
22929;SDS011;11630;42.660;23.292;2022-08-06T12:13:06;8.70;;;4.60;;
22929;SDS011;11630;42.660;23.292;2022-08-06T12:15:38;4.97;;;4.05;;
22929;SDS011;11630;42.660;23.292;2022-08-06T12:18:08;4.92;;;3.98;;
22929;SDS011;11630;42.660;23.292;2022-08-06T12:20:40;6.62;;;3.92;;
22929;SDS011;11630;42.660;23.292;2022-08-06T12:23:14;4.78;;;3.83;;
22929;SDS011;11630;42.660;23.292;2022-08-06T12:25:47;5.80;;;4.00;;
22929;SDS011;11630;42.660;23.292;2022-08-06T12:28:18;7.97;;;4.53;;
22929;SDS011;11630;42.660;23.292;2022-08-06T12:30:49;3.90;;;3.27;;
22929;SDS011;11630;42.660;23.292;2022-08-06T12:33:20;3.50;;;3.20;;
22929;SDS011;11630;42.660;23.292;2022-08-06T12:35:54;4.22;;;3.72;;
22929;SDS011;11630;42.660;23.292;2022-08-06T12:38:26;4.58;;;3.35;;
22929;SDS011;11630;42.660;23.292;2022-08-06T12:40:58;3.52;;;3.22;;
22929;SDS011;11630;42.660;23.292;2022-08-06T12:43:35;5.12;;;3.40;;
22929;SDS011;11630;42.660;23.292;2022-08-06T12:46:07;4.28;;;3.90;;
22929;SDS011;11630;42.660;23.292;2022-08-06T12:48:37;4.20;;;3.87;;
22929;SDS011;11630;42.660;23.292;2022-08-06T12:51:10;3.95;;;3.58;;
22929;SDS011;11630;42.660;23.292;2022-08-06T12:56:21;5.30;;;3.55;;
22929;SDS011;11630;42.660;23.292;2022-08-06T12:58:51;5.00;;;3.35;;
22929;SDS011;11630;42.660;23.292;2022-08-06T13:01:26;4.22;;;3.37;;
22929;SDS011;11630;42.660;23.292;2022-08-06T13:03:55;3.92;;;2.60;;
22929;SDS011;11630;42.660;23.292;2022-08-06T13:06:27;3.87;;;3.47;;
22929;SDS011;11630;42.660;23.292;2022-08-06T13:08:59;3.10;;;2.80;;
22929;SDS011;11630;42.660;23.292;2022-08-06T13:11:31;4.90;;;3.10;;
22929;SDS011;11630;42.660;23.292;2022-08-06T13:14:13;7.17;;;3.52;;
22929;SDS011;11630;42.660;23.292;2022-08-06T13:16:48;4.87;;;3.47;;
22929;SDS011;11630;42.660;23.292;2022-08-06T13:19:21;3.12;;;2.90;;
22929;SDS011;11630;42.660;23.292;2022-08-06T13:22:00;5.05;;;3.40;;
22929;SDS011;11630;42.660;23.292;2022-08-06T13:24:32;3.40;;;3.10;;
22929;SDS011;11630;42.660;23.292;2022-08-06T13:27:03;5.28;;;3.15;;
22929;SDS011;11630;42.660;23.292;2022-08-06T13:30:19;4.03;;;3.72;;
22929;SDS011;11630;42.660;23.292;2022-08-06T13:32:32;7.37;;;3.55;;
22929;SDS011;11630;42.660;23.292;2022-08-06T13:35:36;9.43;;;3.42;;
22929;SDS011;11630;42.660;23.292;2022-08-06T13:40:42;7.53;;;3.62;;
22929;SDS011;11630;42.660;23.292;2022-08-06T13:43:16;4.30;;;3.58;;
22929;SDS011;11630;42.660;23.292;2022-08-06T13:45:47;4.87;;;3.52;;
22929;SDS011;11630;42.660;23.292;2022-08-06T13:48:18;3.47;;;3.17;;
22929;SDS011;11630;42.660;23.292;2022-08-06T13:50:49;8.88;;;3.72;;
22929;SDS011;11630;42.660;23.292;2022-08-06T13:53:19;3.83;;;3.52;;
22929;SDS011;11630;42.660;23.292;2022-08-06T13:55:50;4.25;;;3.72;;
22929;SDS011;11630;42.660;23.292;2022-08-06T13:58:21;4.40;;;3.95;;
22929;SDS011;11630;42.660;23.292;2022-08-06T14:00:52;4.08;;;3.72;;
22929;SDS011;11630;42.660;23.292;2022-08-06T14:03:23;3.77;;;3.47;;
22929;SDS011;11630;42.660;23.292;2022-08-06T14:05:54;7.55;;;3.98;;
22929;SDS011;11630;42.660;23.292;2022-08-06T14:08:25;3.98;;;3.67;;
22929;SDS011;11630;42.660;23.292;2022-08-06T14:10:56;7.78;;;4.10;;
22929;SDS011;11630;42.660;23.292;2022-08-06T14:13:26;4.17;;;3.87;;
22929;SDS011;11630;42.660;23.292;2022-08-06T14:15:56;6.50;;;4.75;;
22929;SDS011;11630;42.660;23.292;2022-08-06T14:18:30;3.55;;;3.25;;
22929;SDS011;11630;42.660;23.292;2022-08-06T14:21:04;4.45;;;3.80;;
22929;SDS011;11630;42.660;23.292;2022-08-06T14:23:35;7.75;;;3.98;;
22929;SDS011;11630;42.660;23.292;2022-08-06T14:26:06;5.90;;;4.25;;
22929;SDS011;11630;42.660;23.292;2022-08-06T14:28:37;6.83;;;3.92;;
22929;SDS011;11630;42.660;23.292;2022-08-06T14:31:08;7.05;;;4.67;;
22929;SDS011;11630;42.660;23.292;2022-08-06T14:33:38;6.53;;;4.10;;
22929;SDS011;11630;42.660;23.292;2022-08-06T14:36:08;8.93;;;4.10;;
22929;SDS011;11630;42.660;23.292;2022-08-06T14:38:38;17.15;;;5.10;;
22929;SDS011;11630;42.660;23.292;2022-08-06T14:41:11;9.45;;;4.83;;
22929;SDS011;11630;42.660;23.292;2022-08-06T14:43:58;3.92;;;3.50;;
22929;SDS011;11630;42.660;23.292;2022-08-06T14:46:46;4.40;;;4.00;;
22929;SDS011;11630;42.660;23.292;2022-08-06T14:49:20;7.92;;;3.83;;
22929;SDS011;11630;42.660;23.292;2022-08-06T14:51:49;5.55;;;4.12;;
22929;SDS011;11630;42.660;23.292;2022-08-06T14:54:20;3.95;;;3.67;;
22929;SDS011;11630;42.660;23.292;2022-08-06T14:56:52;6.17;;;3.95;;
22929;SDS011;11630;42.660;23.292;2022-08-06T14:59:25;7.62;;;4.35;;
22929;SDS011;11630;42.660;23.292;2022-08-06T15:01:56;4.70;;;4.22;;
22929;SDS011;11630;42.660;23.292;2022-08-06T15:04:26;6.47;;;5.40;;
22929;SDS011;11630;42.660;23.292;2022-08-06T15:06:58;5.92;;;4.80;;
22929;SDS011;11630;42.660;23.292;2022-08-06T15:09:29;4.97;;;4.50;;
22929;SDS011;11630;42.660;23.292;2022-08-06T15:11:59;4.42;;;4.03;;
22929;SDS011;11630;42.660;23.292;2022-08-06T15:14:30;10.88;;;5.22;;
22929;SDS011;11630;42.660;23.292;2022-08-06T15:17:01;5.45;;;4.03;;
22929;SDS011;11630;42.660;23.292;2022-08-06T15:19:32;6.03;;;4.20;;
22929;SDS011;11630;42.660;23.292;2022-08-06T15:22:05;5.20;;;4.80;;
22929;SDS011;11630;42.660;23.292;2022-08-06T15:24:35;7.17;;;4.65;;
22929;SDS011;11630;42.660;23.292;2022-08-06T15:27:09;4.72;;;4.28;;
22929;SDS011;11630;42.660;23.292;2022-08-06T15:29:40;7.87;;;5.03;;
22929;SDS011;11630;42.660;23.292;2022-08-06T15:32:16;5.30;;;4.87;;
22929;SDS011;11630;42.660;23.292;2022-08-06T15:34:46;7.15;;;4.85;;
22929;SDS011;11630;42.660;23.292;2022-08-06T15:37:18;7.33;;;4.03;;
22929;SDS011;11630;42.660;23.292;2022-08-06T15:39:49;18.62;;;6.35;;
22929;SDS011;11630;42.660;23.292;2022-08-06T15:42:20;5.95;;;5.33;;
22929;SDS011;11630;42.660;23.292;2022-08-06T15:44:51;6.37;;;4.78;;
22929;SDS011;11630;42.660;23.292;2022-08-06T15:47:21;7.53;;;4.80;;
22929;SDS011;11630;42.660;23.292;2022-08-06T15:49:51;6.50;;;4.83;;
22929;SDS011;11630;42.660;23.292;2022-08-06T15:52:22;4.53;;;4.10;;
22929;SDS011;11630;42.660;23.292;2022-08-06T15:54:53;5.33;;;4.83;;
22929;SDS011;11630;42.660;23.292;2022-08-06T15:57:23;5.05;;;4.62;;
22929;SDS011;11630;42.660;23.292;2022-08-06T15:59:54;7.85;;;4.37;;
22929;SDS011;11630;42.660;23.292;2022-08-06T16:02:25;8.25;;;5.55;;
22929;SDS011;11630;42.660;23.292;2022-08-06T16:04:58;6.40;;;4.83;;
22929;SDS011;11630;42.660;23.292;2022-08-06T16:07:28;5.55;;;4.37;;
22929;SDS011;11630;42.660;23.292;2022-08-06T16:09:59;5.00;;;4.12;;
22929;SDS011;11630;42.660;23.292;2022-08-06T16:12:31;4.87;;;4.35;;
22929;SDS011;11630;42.660;23.292;2022-08-06T16:15:02;5.05;;;4.65;;
22929;SDS011;11630;42.660;23.292;2022-08-06T16:17:36;11.38;;;4.83;;
22929;SDS011;11630;42.660;23.292;2022-08-06T16:20:10;5.30;;;4.80;;